createdAt,value
2022-10-13T00:01:40.550Z,101043.66
2022-10-13T00:04:08.895Z,101040.19
2022-10-13T00:06:37.460Z,101043.63
2022-10-13T00:09:07.820Z,101043.66
2022-10-13T00:11:36.603Z,101035.88
2022-10-13T00:14:06.061Z,101039.31
2022-10-13T00:16:37.709Z,101031.56
2022-10-13T00:19:06.471Z,101036.72
2022-10-13T00:21:35.059Z,101034.13
2022-10-13T00:24:05.162Z,101030.69
2022-10-13T00:26:37.936Z,101028.97
2022-10-13T00:29:08.983Z,101027.22
2022-10-13T00:31:37.448Z,101024.63
2022-10-13T00:34:06.139Z,101025.47
2022-10-13T00:36:34.697Z,101028.06
2022-10-13T00:39:03.179Z,101029.78
2022-10-13T00:41:31.721Z,101027.22
2022-10-13T00:44:03.683Z,101029.78
2022-10-13T00:46:33.971Z,101023.75
2022-10-13T00:49:06.132Z,101027.16
2022-10-13T00:51:39.198Z,101026.31
2022-10-13T00:54:10.613Z,101020.28
2022-10-13T00:56:40.822Z,101023.72
2022-10-13T00:59:19.287Z,101019.38
2022-10-13T01:01:48.013Z,101016.78
2022-10-13T01:04:18.029Z,101014.19
2022-10-13T01:06:47.562Z,101012.44
2022-10-13T01:09:16.047Z,101010.75
2022-10-13T01:11:58.826Z,101009.88
2022-10-13T01:14:33.093Z,101006.41
2022-10-13T01:17:12.003Z,101008.13
2022-10-13T01:20:03.963Z,100996.03
2022-10-13T01:22:46.573Z,101002.91
2022-10-13T01:25:30.330Z,101005.50
2022-10-13T01:28:17.052Z,100999.44
2022-10-13T01:30:50.702Z,100992.53
2022-10-13T01:33:31.919Z,100986.47
2022-10-13T01:36:16.856Z,100991.66
2022-10-13T01:38:53.358Z,100986.47
2022-10-13T01:41:27.628Z,100991.63
2022-10-13T01:44:03.241Z,100981.28
2022-10-13T01:46:36.888Z,100972.66
2022-10-13T01:49:11.941Z,100975.25
2022-10-13T01:51:43.196Z,100981.28
2022-10-13T01:54:14.847Z,100970.94
2022-10-13T01:56:44.121Z,100971.81
2022-10-13T01:59:15.448Z,100974.38
2022-10-13T02:02:01.388Z,100972.63
2022-10-13T02:04:43.731Z,100981.28
2022-10-13T02:07:21.049Z,100981.22
2022-10-13T02:09:59.269Z,100981.25
2022-10-13T02:12:33.870Z,100976.09
2022-10-13T02:15:04.041Z,100984.72
2022-10-13T02:17:35.946Z,100982.97
2022-10-13T02:20:07.832Z,100977.81
2022-10-13T02:22:42.409Z,100970.94
2022-10-13T02:25:11.299Z,100978.63
2022-10-13T02:27:40.123Z,100966.56
2022-10-13T02:30:10.051Z,100973.44
2022-10-13T02:32:40.080Z,100978.63
2022-10-13T02:35:09.991Z,100973.44
2022-10-13T02:37:38.428Z,100974.28
2022-10-13T02:40:08.040Z,100976.00
2022-10-13T02:42:36.828Z,100975.16
2022-10-13T02:45:06.075Z,100975.16
2022-10-13T02:47:34.781Z,100972.56
2022-10-13T02:50:08.875Z,100965.72
2022-10-13T02:52:37.856Z,100964.88
2022-10-13T02:55:07.695Z,100960.56
2022-10-13T02:57:36.153Z,100964.03
2022-10-13T03:00:07.642Z,100968.34
2022-10-13T03:02:36.226Z,100960.56
2022-10-13T03:05:06.856Z,100959.69
2022-10-13T03:07:35.541Z,100957.97
2022-10-13T03:10:04.119Z,100960.56
2022-10-13T03:12:33.251Z,100951.06
2022-10-13T03:15:01.970Z,100955.38
2022-10-13T03:17:30.474Z,100954.50
2022-10-13T03:19:59.141Z,100948.47
2022-10-13T03:22:29.139Z,100942.41
2022-10-13T03:24:57.682Z,100948.41
2022-10-13T03:27:26.721Z,100955.31
2022-10-13T03:29:55.176Z,100951.88
2022-10-13T03:32:24.164Z,100949.28
2022-10-13T03:34:52.759Z,100958.78
2022-10-13T03:37:21.607Z,100951.88
2022-10-13T03:39:51.578Z,100950.97
2022-10-13T03:42:20.428Z,100945.75
2022-10-13T03:44:55.954Z,100949.19
2022-10-13T03:47:25.108Z,100945.75
2022-10-13T03:49:56.151Z,100953.50
2022-10-13T03:52:24.759Z,100944.00
2022-10-13T03:54:54.879Z,100950.00
2022-10-13T03:57:23.857Z,100940.53
2022-10-13T03:59:52.793Z,100938.78
2022-10-13T04:02:21.586Z,100937.91
2022-10-13T04:04:51.331Z,100944.81
2022-10-13T04:07:19.708Z,100936.19
2022-10-13T04:09:48.504Z,100937.91
2022-10-13T04:12:20.789Z,100933.59
2022-10-13T04:14:49.728Z,100932.75
2022-10-13T04:17:18.424Z,100930.16
2022-10-13T04:19:47.464Z,100933.56
2022-10-13T04:22:15.975Z,100933.56
2022-10-13T04:24:50.367Z,100937.88
2022-10-13T04:27:21.361Z,100936.13
2022-10-13T04:29:50.209Z,100936.97
2022-10-13T04:32:19.482Z,100936.94
2022-10-13T04:34:48.802Z,100937.81
2022-10-13T04:37:17.490Z,100935.22
2022-10-13T04:39:45.990Z,100934.34
2022-10-13T04:42:14.695Z,100936.94
2022-10-13T04:44:44.623Z,100936.94
2022-10-13T04:47:13.544Z,100939.50
2022-10-13T04:49:42.277Z,100930.91
2022-10-13T04:52:12.875Z,100940.38
2022-10-13T04:54:42.915Z,100943.84
2022-10-13T04:57:11.641Z,100937.81
2022-10-13T04:59:40.475Z,100946.41
2022-10-13T05:02:10.801Z,100944.66
2022-10-13T05:04:39.864Z,100943.81
2022-10-13T05:07:24.058Z,100941.22
2022-10-13T05:09:53.521Z,100948.09
2022-10-13T05:12:22.358Z,100944.63
2022-10-13T05:14:51.912Z,100950.66
2022-10-13T05:17:22.294Z,100955.84
2022-10-13T05:19:51.418Z,100953.25
2022-10-13T05:22:20.909Z,100949.78
2022-10-13T05:24:51.544Z,100956.69
2022-10-13T05:27:23.878Z,100951.50
2022-10-13T05:29:55.701Z,100946.34
2022-10-13T05:32:25.754Z,100948.97
2022-10-13T05:34:55.105Z,100952.44
2022-10-13T05:37:24.008Z,100953.34
2022-10-13T05:39:54.867Z,100952.53
2022-10-13T05:42:23.735Z,100956.06
2022-10-13T05:44:54.060Z,100958.66
2022-10-13T05:47:26.969Z,100962.97
2022-10-13T05:49:59.912Z,100962.09
2022-10-13T05:52:41.773Z,100963.81
2022-10-13T05:55:12.770Z,100963.84
2022-10-13T05:57:45.545Z,100974.19
2022-10-13T06:00:17.835Z,100977.66
2022-10-13T06:03:34.526Z,100971.63
2022-10-13T06:06:03.734Z,100972.53
2022-10-13T06:08:33.726Z,100976.84
2022-10-13T06:11:03.706Z,100972.56
2022-10-13T06:13:36.849Z,100974.34
2022-10-13T06:16:06.609Z,100970.94
2022-10-13T06:18:37.404Z,100980.44
2022-10-13T06:21:06.726Z,100977.88
2022-10-13T06:23:35.914Z,100974.44
2022-10-13T06:26:04.752Z,100972.75
2022-10-13T06:28:33.510Z,100984.84
2022-10-13T06:31:06.624Z,100968.47
2022-10-13T06:33:38.578Z,100964.16
2022-10-13T06:36:08.483Z,100965.91
2022-10-13T06:38:38.791Z,100960.72
2022-10-13T06:41:15.124Z,100962.44
2022-10-13T06:43:44.028Z,100961.56
2022-10-13T06:46:13.692Z,100969.34
2022-10-13T06:48:43.851Z,100972.78
2022-10-13T06:51:13.510Z,100970.19
2022-10-13T06:53:44.524Z,100970.16
2022-10-13T06:56:14.450Z,100968.41
2022-10-13T06:58:46.329Z,100972.66
2022-10-13T07:01:18.285Z,100973.47
2022-10-13T07:03:52.393Z,100973.38
2022-10-13T07:06:23.231Z,100963.78
2022-10-13T07:08:55.606Z,100969.75
2022-10-13T07:11:24.369Z,100960.06
2022-10-13T07:13:58.383Z,100958.22
2022-10-13T07:16:30.663Z,100959.88
2022-10-13T07:19:00.877Z,100966.69
2022-10-13T07:21:29.640Z,100959.63
2022-10-13T07:23:58.502Z,100963.78
2022-10-13T07:26:29.703Z,100962.81
2022-10-13T07:28:58.694Z,100965.28
2022-10-13T07:31:28.071Z,100961.66
2022-10-13T07:33:57.754Z,100969.38
2022-10-13T07:36:30.621Z,100963.94
2022-10-13T07:38:59.786Z,100957.69
2022-10-13T07:41:28.560Z,100958.31
2022-10-13T07:43:57.802Z,100954.66
2022-10-13T07:46:26.816Z,100957.03
2022-10-13T07:48:58.582Z,100954.00
2022-10-13T07:51:27.293Z,100950.22
2022-10-13T07:53:57.220Z,100949.09
2022-10-13T07:56:29.291Z,100949.63
2022-10-13T07:58:57.849Z,100946.66
2022-10-13T08:01:29.594Z,100946.63
2022-10-13T08:04:01.698Z,100942.47
2022-10-13T08:06:30.722Z,100926.66
2022-10-13T08:09:01.308Z,100933.34
2022-10-13T08:11:29.715Z,100918.53
2022-10-13T08:14:01.240Z,100922.97
2022-10-13T08:16:30.672Z,100924.56
2022-10-13T08:19:01.513Z,100923.47
2022-10-13T08:24:22.684Z,100918.31
2022-10-13T08:26:51.389Z,100920.97
2022-10-13T08:29:23.527Z,100918.75
2022-10-13T08:31:53.097Z,100907.13
2022-10-13T08:34:25.639Z,100910.16
2022-10-13T08:36:56.824Z,100896.66
2022-10-13T08:39:27.009Z,100901.00
2022-10-13T08:41:57.940Z,100891.44
2022-10-13T08:47:33.763Z,100891.13
2022-10-13T08:50:06.159Z,100885.63
2022-10-13T08:52:48.685Z,100886.41
2022-10-13T08:55:28.067Z,100882.75
2022-10-13T08:57:57.365Z,100891.13
2022-10-13T09:00:30.624Z,100881.88
2022-10-13T09:03:20.947Z,100879.75
2022-10-13T09:06:01.139Z,100877.06
2022-10-13T09:08:35.524Z,100876.16
2022-10-13T09:11:06.860Z,100873.88
2022-10-13T09:13:35.263Z,100872.66
2022-10-13T09:16:03.810Z,100867.09
2022-10-13T09:18:33.838Z,100869.94
2022-10-13T09:21:24.461Z,100870.56
2022-10-13T09:23:55.127Z,100872.75
2022-10-13T09:26:28.243Z,100865.81
2022-10-13T09:28:57.285Z,100860.19
2022-10-13T09:31:34.218Z,100859.28
2022-10-13T09:34:14.563Z,100862.09
2022-10-13T09:36:59.008Z,100861.38
2022-10-13T09:39:28.528Z,100863.19
2022-10-13T09:46:26.539Z,100842.53
2022-10-13T09:49:00.136Z,100835.06
2022-10-13T09:51:38.643Z,100837.63
2022-10-13T09:54:30.084Z,100828.34
2022-10-13T09:57:03.645Z,100832.56
2022-10-13T09:59:34.711Z,100836.53
2022-10-13T10:02:23.728Z,100836.19
2022-10-13T10:04:58.235Z,100833.31
2022-10-13T10:07:39.104Z,100831.88
2022-10-13T10:10:25.026Z,100820.50
2022-10-13T10:13:02.931Z,100814.06
2022-10-13T10:15:44.771Z,100813.31
2022-10-13T10:18:20.806Z,100816.78
2022-10-13T10:21:02.237Z,100810.03
2022-10-13T10:23:44.153Z,100811.66
2022-10-13T10:26:24.147Z,100809.09
2022-10-13T10:29:11.091Z,100809.03
2022-10-13T10:31:59.640Z,100816.09
2022-10-13T10:34:38.587Z,100813.91
2022-10-13T10:37:35.500Z,100809.19
2022-10-13T10:40:17.606Z,100811.22
2022-10-13T10:43:01.897Z,100809.56
2022-10-13T10:45:38.595Z,100813.59
2022-10-13T10:48:22.235Z,100814.63
2022-10-13T10:50:54.354Z,100798.22
2022-10-13T10:53:34.552Z,100798.34
2022-10-13T10:56:14.633Z,100791.59
2022-10-13T10:58:50.724Z,100793.06
2022-10-13T11:01:36.913Z,100783.06
2022-10-13T11:04:32.511Z,100780.66
2022-10-13T11:07:03.018Z,100779.25
2022-10-13T11:10:17.668Z,100772.81
2022-10-13T11:13:21.101Z,100767.50
2022-10-13T11:15:50.305Z,100767.13
2022-10-13T11:18:55.064Z,100762.34
2022-10-13T11:21:27.284Z,100758.44
2022-10-13T11:24:01.784Z,100751.38
2022-10-13T11:26:42.118Z,100741.09
2022-10-13T11:50:21.481Z,100701.03
2022-10-13T11:53:15.032Z,100708.72
2022-10-13T11:55:50.247Z,100697.19
2022-10-13T11:58:25.155Z,100697.41
2022-10-13T12:00:59.098Z,100690.44
2022-10-13T12:03:31.664Z,100682.50
2022-10-13T12:06:08.259Z,100672.75
2022-10-13T12:08:41.027Z,100675.41
2022-10-13T12:11:28.582Z,100673.91
2022-10-13T12:14:00.878Z,100670.50
2022-10-13T12:16:30.086Z,100669.28
2022-10-13T12:19:10.487Z,100658.25
2022-10-13T12:21:53.567Z,100663.19
2022-10-13T12:24:24.161Z,100662.41
2022-10-13T12:26:53.371Z,100661.78
2022-10-13T12:29:26.714Z,100661.25
2022-10-13T12:31:58.417Z,100658.88
2022-10-13T12:34:29.704Z,100645.56
2022-10-13T12:37:05.169Z,100644.53
2022-10-13T12:39:36.969Z,100645.28
2022-10-13T12:42:12.398Z,100651.41
2022-10-13T12:44:42.905Z,100647.81
2022-10-13T12:47:40.123Z,100648.78
2022-10-13T12:50:38.596Z,100653.59
2022-10-13T12:53:23.826Z,100648.09
2022-10-13T12:55:59.250Z,100655.19
2022-10-13T12:58:46.739Z,100642.00
2022-10-13T13:01:31.766Z,100648.28
2022-10-13T13:04:03.162Z,100645.41
2022-10-13T13:06:39.968Z,100637.16
2022-10-13T13:09:35.105Z,100641.38
2022-10-13T13:12:29.824Z,100629.03
2022-10-13T13:15:20.000Z,100636.94
2022-10-13T13:17:59.405Z,100636.75
2022-10-13T13:20:33.142Z,100637.16
2022-10-13T13:23:02.171Z,100627.66
2022-10-13T13:25:38.271Z,100618.19
2022-10-13T13:28:16.968Z,100625.59
2022-10-13T13:30:45.757Z,100620.84
2022-10-13T13:33:16.292Z,100615.78
2022-10-13T13:35:49.002Z,100614.31
2022-10-13T13:38:20.984Z,100613.03
2022-10-13T13:40:51.415Z,100603.28
2022-10-13T13:43:27.139Z,100606.66
2022-10-13T13:45:56.070Z,100619.44
2022-10-13T13:48:26.948Z,100613.91
2022-10-13T13:50:55.973Z,100607.03
2022-10-13T13:53:24.974Z,100602.25
2022-10-13T13:55:57.680Z,100605.41
2022-10-13T13:58:28.340Z,100603.38
2022-10-13T14:00:57.761Z,100597.19
2022-10-13T14:03:31.174Z,100604.69
2022-10-13T14:06:03.032Z,100597.06
2022-10-13T14:08:33.025Z,100594.19
2022-10-13T14:11:09.385Z,100588.03
2022-10-13T14:13:40.876Z,100588.00
2022-10-13T14:16:20.014Z,100588.47
2022-10-13T14:18:53.043Z,100579.38
2022-10-13T14:21:21.728Z,100586.09
2022-10-13T14:23:50.537Z,100585.19
2022-10-13T14:26:21.885Z,100590.38
2022-10-13T14:28:50.781Z,100586.81
2022-10-13T14:31:21.828Z,100583.91
2022-10-13T14:33:54.488Z,100592.00
2022-10-13T14:36:23.847Z,100594.59
2022-10-13T14:38:52.835Z,100589.25
2022-10-13T14:41:26.421Z,100581.56
2022-10-13T14:43:55.951Z,100583.41
2022-10-13T14:46:27.399Z,100577.22
2022-10-13T14:49:03.620Z,100578.06
2022-10-13T14:51:36.135Z,100580.41
2022-10-13T14:54:07.064Z,100560.88
2022-10-13T14:56:37.474Z,100557.09
2022-10-13T14:59:08.808Z,100559.41
2022-10-13T15:01:41.749Z,100562.84
2022-10-13T15:04:10.731Z,100563.53
2022-10-13T15:06:40.749Z,100563.59
2022-10-13T15:09:10.901Z,100563.63
2022-10-13T15:11:40.944Z,100563.47
2022-10-13T15:14:10.778Z,100564.13
2022-10-13T15:16:42.649Z,100557.06
2022-10-13T15:19:11.260Z,100561.38
2022-10-13T15:21:40.073Z,100564.91
2022-10-13T15:24:09.570Z,100556.63
2022-10-13T15:26:38.125Z,100551.91
2022-10-13T15:29:08.617Z,100556.78
2022-10-13T15:31:37.865Z,100546.91
2022-10-13T15:34:06.763Z,100542.31
2022-10-13T15:36:35.847Z,100554.44
2022-10-13T15:39:04.826Z,100551.69
2022-10-13T15:41:33.864Z,100553.78
2022-10-13T15:44:03.243Z,100559.59
2022-10-13T15:46:37.849Z,100552.44
2022-10-13T15:49:21.469Z,100559.06
2022-10-13T15:52:35.621Z,100547.63
2022-10-13T15:55:04.234Z,100554.72
2022-10-13T15:57:33.143Z,100547.44
2022-10-13T16:00:01.980Z,100549.44
2022-10-13T16:02:45.048Z,100559.56
2022-10-13T16:05:14.783Z,100555.72
2022-10-13T16:07:44.299Z,100548.28
2022-10-13T16:10:14.914Z,100545.28
2022-10-13T16:12:48.563Z,100537.81
2022-10-13T16:15:20.630Z,100545.34
2022-10-13T16:17:52.810Z,100537.94
2022-10-13T16:20:21.769Z,100542.69
2022-10-13T16:22:50.714Z,100546.53
2022-10-13T16:25:20.233Z,100547.69
2022-10-13T16:27:49.018Z,100544.47
2022-10-13T16:30:17.914Z,100541.25
2022-10-13T16:32:46.682Z,100533.59
2022-10-13T16:35:17.051Z,100537.22
2022-10-13T16:37:45.777Z,100537.44
2022-10-13T16:40:24.039Z,100530.88
2022-10-13T16:43:22.923Z,100530.44
2022-10-13T16:46:00.286Z,100539.16
2022-10-13T16:48:31.486Z,100539.16
2022-10-13T16:51:06.218Z,100541.00
2022-10-13T16:53:35.227Z,100543.69
2022-10-13T16:56:08.718Z,100544.78
2022-10-13T16:58:38.107Z,100543.38
2022-10-13T17:01:11.116Z,100549.78
2022-10-13T17:03:40.981Z,100548.31
2022-10-13T17:06:14.940Z,100550.19
2022-10-13T17:08:44.730Z,100544.19
2022-10-13T17:11:18.677Z,100540.81
2022-10-13T17:13:49.181Z,100545.22
2022-10-13T17:16:19.747Z,100542.81
2022-10-13T17:18:48.922Z,100542.94
2022-10-13T17:21:19.426Z,100533.63
2022-10-13T17:23:49.067Z,100537.31
2022-10-13T17:26:20.967Z,100530.56
2022-10-13T17:28:50.874Z,100529.84
2022-10-13T17:31:22.049Z,100535.22
2022-10-13T17:33:52.041Z,100524.91
2022-10-13T17:36:24.723Z,100529.56
2022-10-13T17:38:55.807Z,100534.09
2022-10-13T17:41:27.787Z,100515.16
2022-10-13T17:43:56.176Z,100519.53
2022-10-13T17:46:41.850Z,100513.66
2022-10-13T17:49:13.004Z,100509.53
2022-10-13T17:51:46.621Z,100518.47
2022-10-13T17:54:16.664Z,100509.97
2022-10-13T17:56:46.088Z,100518.81
2022-10-13T17:59:15.616Z,100511.97
2022-10-13T18:01:45.119Z,100519.91
2022-10-13T18:04:15.825Z,100519.94
2022-10-13T18:06:46.681Z,100515.69
2022-10-13T18:09:19.827Z,100520.13
2022-10-13T18:11:51.365Z,100508.97
2022-10-13T18:14:20.840Z,100509.88
2022-10-13T18:16:50.705Z,100509.13
2022-10-13T18:19:19.690Z,100510.13
2022-10-13T18:21:49.978Z,100508.53
2022-10-13T18:24:18.768Z,100516.41
2022-10-13T18:26:47.717Z,100513.00
2022-10-13T18:29:16.698Z,100514.78
2022-10-13T18:31:48.314Z,100507.03
2022-10-13T18:34:18.793Z,100510.63
2022-10-13T18:36:51.525Z,100505.47
2022-10-13T18:39:22.774Z,100504.72
2022-10-13T18:41:51.640Z,100513.50
2022-10-13T18:44:21.095Z,100502.31
2022-10-13T18:46:51.715Z,100505.88
2022-10-13T18:49:23.356Z,100501.63
2022-10-13T18:51:53.502Z,100498.22
2022-10-13T18:54:22.377Z,100500.03
2022-10-13T18:56:51.321Z,100504.38
2022-10-13T18:59:21.022Z,100505.31
2022-10-13T19:01:50.335Z,100506.19
2022-10-13T19:04:19.556Z,100505.31
2022-10-13T19:06:48.321Z,100496.69
2022-10-13T19:09:19.161Z,100498.47
2022-10-13T19:11:47.895Z,100508.13
2022-10-13T19:14:19.849Z,100506.50
2022-10-13T19:16:48.597Z,100511.69
2022-10-13T19:19:17.327Z,100509.09
2022-10-13T19:21:45.747Z,100508.25
2022-10-13T19:24:14.242Z,100507.38
2022-10-13T19:26:44.491Z,100507.44
2022-10-13T19:29:15.756Z,100505.78
2022-10-13T19:31:44.760Z,100507.59
2022-10-13T19:34:15.076Z,100499.00
2022-10-13T19:36:45.980Z,100500.78
2022-10-13T19:39:17.729Z,100502.59
2022-10-13T19:41:49.309Z,100507.03
2022-10-13T19:44:19.668Z,100499.28
2022-10-13T19:46:49.850Z,100507.09
2022-10-13T19:49:21.595Z,100503.69
2022-10-13T19:51:53.893Z,100498.44
2022-10-13T19:54:23.924Z,100496.78
2022-10-13T19:56:54.832Z,100492.41
2022-10-13T19:59:24.422Z,100495.88
2022-10-13T20:01:52.857Z,100496.78
2022-10-13T20:04:21.645Z,100493.31
2022-10-13T20:06:50.729Z,100490.75
2022-10-13T20:09:20.597Z,100490.84
2022-10-13T20:11:50.762Z,100486.56
2022-10-13T20:14:21.311Z,100491.00
2022-10-13T20:16:49.907Z,100485.84
2022-10-13T20:19:19.977Z,100478.94
2022-10-13T20:21:51.864Z,100485.00
2022-10-13T20:24:21.799Z,100468.63
2022-10-13T20:26:51.007Z,100484.22
2022-10-13T20:29:25.112Z,100476.50
2022-10-13T20:31:53.738Z,100479.13
2022-10-13T20:34:22.506Z,100477.31
2022-10-13T20:36:51.947Z,100467.84
2022-10-13T20:39:20.838Z,100468.81
2022-10-13T20:41:49.500Z,100476.72
2022-10-13T20:44:19.032Z,100468.16
2022-10-13T20:46:49.155Z,100469.13
2022-10-13T20:49:17.907Z,100470.97
2022-10-13T20:51:46.823Z,100462.41
2022-10-13T20:54:16.574Z,100459.03
2022-10-13T20:56:45.293Z,100461.69
2022-10-13T20:59:16.271Z,100462.69
2022-10-13T21:01:45.262Z,100462.72
2022-10-13T21:04:15.306Z,100464.53
2022-10-13T21:06:44.361Z,100457.66
2022-10-13T21:09:13.373Z,100462.91
2022-10-13T21:11:43.687Z,100452.56
2022-10-13T21:14:12.591Z,100447.44
2022-10-13T21:16:41.451Z,100447.44
2022-10-13T21:19:15.350Z,100447.44
2022-10-13T21:21:44.363Z,100448.31
2022-10-13T21:24:12.692Z,100449.25
2022-10-13T21:26:42.144Z,100444.97
2022-10-13T21:29:16.053Z,100439.03
2022-10-13T21:31:44.790Z,100447.66
2022-10-13T21:34:14.983Z,100450.25
2022-10-13T21:36:46.806Z,100443.31
2022-10-13T21:39:15.653Z,100451.09
2022-10-13T21:41:44.537Z,100437.19
2022-10-13T21:44:15.555Z,100442.38
2022-10-13T21:46:44.113Z,100441.47
2022-10-13T21:49:14.543Z,100438.84
2022-10-13T21:51:44.951Z,100438.84
2022-10-13T21:54:15.354Z,100445.00
2022-10-13T21:56:45.792Z,100448.50
2022-10-13T21:59:14.712Z,100448.50
2022-10-13T22:01:44.687Z,100441.53
2022-10-13T22:04:17.765Z,100441.50
2022-10-13T22:06:46.654Z,100438.00
2022-10-13T22:09:15.578Z,100435.41
2022-10-13T22:11:44.949Z,100425.00
2022-10-13T22:14:14.225Z,100425.03
2022-10-13T22:16:44.501Z,100432.00
2022-10-13T22:19:13.650Z,100426.84
2022-10-13T22:21:45.842Z,100434.75
2022-10-13T22:24:16.676Z,100425.34
2022-10-13T22:26:46.737Z,100432.44
2022-10-13T22:29:18.121Z,100425.59
2022-10-13T22:31:48.286Z,100423.06
2022-10-13T22:34:17.167Z,100419.69
2022-10-13T22:36:47.207Z,100419.78
2022-10-13T22:39:16.550Z,100425.06
2022-10-13T22:41:45.224Z,100416.47
2022-10-13T22:44:14.541Z,100421.66
2022-10-13T22:46:43.129Z,100422.59
2022-10-13T22:49:14.841Z,100422.63
2022-10-13T22:51:43.501Z,100423.53
2022-10-13T22:54:13.649Z,100425.34
2022-10-13T22:56:43.357Z,100415.88
2022-10-13T22:59:14.156Z,100428.91
2022-10-13T23:01:42.488Z,100425.44
2022-10-13T23:04:11.737Z,100419.47
2022-10-13T23:06:40.318Z,100423.03
2022-10-13T23:09:12.009Z,100419.66
2022-10-13T23:11:42.516Z,100422.38
2022-10-13T23:14:14.007Z,100430.28
2022-10-13T23:16:42.466Z,100431.19
2022-10-13T23:19:11.031Z,100425.13
2022-10-13T23:21:39.435Z,100423.44
2022-10-13T23:24:09.697Z,100422.66
2022-10-13T23:26:38.247Z,100419.25
2022-10-13T23:29:08.284Z,100419.28
2022-10-13T23:31:37.340Z,100413.31
2022-10-13T23:34:05.836Z,100413.44
2022-10-13T23:36:34.687Z,100415.22
2022-10-13T23:39:06.656Z,100415.25
2022-10-13T23:41:36.178Z,100412.75
2022-10-13T23:44:05.404Z,100410.16
2022-10-13T23:46:35.451Z,100408.41
2022-10-13T23:49:05.224Z,100405.81
2022-10-13T23:51:34.405Z,100403.22
2022-10-13T23:54:03.107Z,100399.78
2022-10-13T23:56:31.768Z,100404.97
2022-10-13T23:59:01.737Z,100396.31
